Date,TemperatureHighF,TemperatureAvgF,TemperatureLowF,DewpointHighF,DewpointAvgF,DewpointLowF,HumidityHigh,HumidityAvg,HumidityLow,PressureMaxIn,PressureMinIn,WindSpeedMaxMPH,WindSpeedAvgMPH,GustSpeedMaxMPH,PrecipitationSumIn
2012-12-1,51.1,42.3,35.8,50.5,40.0,34.0,98,92,73,30.13,29.74,9,4,13,0.00
2012-12-2,51.3,43.1,32.9,50.5,39.7,29.7,98,89,65,30.01,29.77,6,2,9,0.02
2012-12-3,61.7,50.2,34.9,60.4,46.4,32.4,98,88,63,29.95,29.59,14,4,22,0.02
2012-12-4,49.8,38.9,23.0,32.3,20.5,5.3,70,48,37,30.36,29.89,12,5,20,0.00
2012-12-5,35.4,27.3,15.8,18.6,10.6,4.8,64,49,40,30.45,30.07,10,4,15,0.00
2012-12-6,47.3,39.9,35.1,33.5,27.2,18.6,71,60,51,30.07,29.80,13,4,21,0.00
2012-12-7,42.3,33.9,30.0,25.9,20.5,16.0,70,58,42,30.01,29.89,10,4,13,0.00
2012-12-8,40.1,31.3,25.0,23.1,19.7,15.8,77,63,44,30.10,29.92,6,3,8,0.00
2012-12-9,34.9,32.1,30.9,31.0,28.1,22.3,96,86,67,30.07,29.68,10,3,18,0.00
2012-12-10,36.1,27.5,19.9,30.7,21.8,14.8,97,80,56,29.92,29.68,7,2,9,0.00
2012-12-11,30.7,22.2,14.4,19.2,14.4,8.7,88,73,50,30.04,29.80,7,2,10,0.00
2012-12-12,41.4,31.2,13.1,29.6,17.6,8.9,89,60,41,30.13,29.98,13,4,22,0.25
2012-12-13,45.9,33.5,19.0,21.7,16.3,12.0,75,50,37,30.13,29.98,7,2,15,0.04
2012-12-14,45.1,30.6,16.2,29.3,19.8,10.8,81,66,41,30.19,29.92,6,2,8,0.05
2012-12-15,39.6,37.4,34.9,39.0,35.7,28.7,98,94,77,29.92,29.45,9,2,13,1.08
2012-12-16,39.7,35.0,28.6,39.2,33.4,25.5,98,94,87,29.71,29.45,8,4,13,0.15
2012-12-17,28.6,25.4,23.0,25.8,20.0,17.9,89,80,71,29.74,29.68,9,3,13,0.00
2012-12-18,31.8,27.4,24.1,26.8,23.3,20.5,89,85,77,29.83,29.59,8,2,10,0.00
2012-12-19,40.3,32.1,27.7,29.4,26.5,24.1,92,80,59,30.01,29.83,9,2,10,0.10
2012-12-20,31.6,29.1,23.5,29.0,25.4,13.5,98,87,66,29.83,29.42,22,11,31,0.00
2012-12-21,23.5,16.7,10.4,13.8,4.0,-1.1,67,57,45,30.22,29.71,18,7,30,0.00
2012-12-22,30.4,12.6,-0.9,9.8,-2.0,-11.8,65,52,40,30.19,29.92,6,1,9,0.00
2012-12-23,31.1,18.1,5.0,15.6,7.9,-8.4,89,65,47,30.07,29.92,8,2,12,0.00
2012-12-24,27.1,19.5,13.3,13.4,8.8,-0.3,78,63,47,30.16,29.92,7,3,10,0.00
2012-12-25,23.5,11.4,1.9,6.9,-3.5,-10.9,71,51,43,30.39,30.16,10,3,14,0.00
2012-12-26,27.9,16.1,7.0,9.9,2.8,-7.8,74,56,46,30.30,30.16,7,3,10,0.00
2012-12-27,27.0,21.3,16.0,16.0,10.5,7.3,80,63,49,30.22,30.10,7,2,9,0.00
2012-12-28,31.1,23.1,20.1,19.6,17.5,15.5,90,79,60,30.13,29.89,5,2,7,0.00
2012-12-29,24.4,18.9,6.8,19.4,11.5,-1.2,88,73,58,30.16,29.89,12,4,17,0.00
2012-12-30,28.6,17.1,-0.6,17.9,6.2,-8.3,78,63,44,30.25,29.86,9,2,14,0.00
2012-12-31,26.8,17.1,1.9,20.0,5.9,-11.3,80,62,45,30.19,29.86,12,4,15,0.00